Time;durP1;ratioP1;P1;durP2;ratioP2;P2;SDS_P1;SDS_P2;PMS_P1;PMS_P2;Temp;Humidity;BMP_temperature;BMP_pressure;BME280_temperature;BME280_humidity;BME280_pressure;Samples;Min_cycle;Max_cycle;Signal;HPM_P1;HPM_P2
2022/04/19 00:01:48;;;;;;;4.30;3.00;;;6.90;99.90;;;;;;4937193;29;20636;-80
2022/04/19 00:04:16;;;;;;;5.00;3.53;;;6.90;99.90;;;;;;4936378;29;20213;-80
2022/04/19 00:06:44;;;;;;;3.43;2.73;;;6.90;99.90;;;;;;4937767;29;20170;-79
2022/04/19 00:09:10;;;;;;;6.30;2.97;;;6.90;99.90;;;;;;4924702;29;20194;-79
2022/04/19 00:11:36;;;;;;;6.00;2.87;;;6.90;99.90;;;;;;4918446;29;20610;-79
2022/04/19 00:14:02;;;;;;;6.13;3.03;;;6.90;99.90;;;;;;4917292;29;20186;-80
2022/04/19 00:16:28;;;;;;;6.67;3.00;;;6.90;99.90;;;;;;4918611;29;20662;-80
2022/04/19 00:18:53;;;;;;;3.20;2.60;;;6.80;99.90;;;;;;4931099;29;20197;-80
2022/04/19 00:21:19;;;;;;;3.03;2.50;;;6.80;99.90;;;;;;4937417;29;20288;-79
2022/04/19 00:23:46;;;;;;;2.90;2.50;;;6.80;99.90;;;;;;4937186;29;20210;-79
2022/04/19 00:26:12;;;;;;;4.83;2.83;;;6.70;99.90;;;;;;4937288;29;20520;-79
2022/04/19 00:28:38;;;;;;;3.97;2.70;;;6.50;99.90;;;;;;4935860;29;20181;-78
2022/04/19 00:31:04;;;;;;;5.67;3.00;;;6.50;99.90;;;;;;4937207;29;20213;-79
2022/04/19 00:33:31;;;;;;;5.87;2.93;;;6.40;99.90;;;;;;4937258;29;20177;-79
2022/04/19 00:35:56;;;;;;;4.63;2.70;;;6.30;99.90;;;;;;4937316;29;20166;-79
2022/04/19 00:38:22;;;;;;;3.73;3.07;;;6.20;99.90;;;;;;4936838;29;20196;-81
2022/04/19 00:40:48;;;;;;;3.90;2.77;;;6.20;99.90;;;;;;4937031;29;20556;-79
2022/04/19 00:43:16;;;;;;;3.90;2.80;;;6.20;99.90;;;;;;4936988;29;20186;-80
2022/04/19 00:45:42;;;;;;;4.03;2.63;;;6.20;99.90;;;;;;4937103;29;20170;-81
2022/04/19 00:48:08;;;;;;;4.13;2.87;;;6.20;99.90;;;;;;4937182;29;20233;-80
2022/04/19 00:50:34;;;;;;;3.73;2.77;;;6.20;99.90;;;;;;4937129;29;20732;-79
2022/04/19 00:53:01;;;;;;;3.07;2.57;;;6.20;99.90;;;;;;4936945;29;20182;-79
2022/04/19 00:55:27;;;;;;;4.30;2.73;;;6.20;99.90;;;;;;4936806;29;20510;-78
2022/04/19 00:57:53;;;;;;;4.27;2.60;;;6.20;99.90;;;;;;4935644;29;20174;-79
2022/04/19 01:00:20;;;;;;;4.93;2.83;;;6.20;99.90;;;;;;4936995;29;20208;-78
2022/04/19 01:02:45;;;;;;;3.83;2.83;;;6.10;99.90;;;;;;4936784;29;20489;-79
2022/04/19 01:05:11;;;;;;;4.97;2.90;;;6.10;99.90;;;;;;4936963;29;20240;-79
2022/04/19 01:07:38;;;;;;;5.73;2.70;;;6.10;99.90;;;;;;4936411;29;20241;-80
2022/04/19 01:10:05;;;;;;;4.17;2.90;;;6.10;99.90;;;;;;4917782;29;20642;-82
2022/04/19 01:15:16;;;;;;;9.57;2.70;;;6.10;99.90;;;;;;4920862;29;20551;-82
2022/04/19 01:17:42;;;;;;;4.27;2.63;;;6.10;99.90;;;;;;4921643;29;20190;-83
2022/04/19 01:20:09;;;;;;;2.77;2.43;;;6.10;99.90;;;;;;4921593;29;20205;-82
2022/04/19 01:22:39;;;;;;;3.73;2.50;;;6.10;99.90;;;;;;4935977;29;20182;-78
2022/04/19 01:25:06;;;;;;;6.53;2.80;;;6.00;99.90;;;;;;4940206;29;20185;-80
2022/04/19 01:27:32;;;;;;;4.77;2.47;;;6.00;99.90;;;;;;4939293;29;20264;-79
2022/04/19 01:30:02;;;;;;;3.03;2.47;;;5.90;99.90;;;;;;4940586;29;20622;-79
2022/04/19 01:32:28;;;;;;;4.33;2.50;;;5.90;99.90;;;;;;4940421;29;20224;-80
2022/04/19 01:35:18;;;;;;;4.27;2.73;;;5.90;99.90;;;;;;4940336;29;20184;-79
2022/04/19 01:37:48;;;;;;;4.93;3.40;;;5.90;99.90;;;;;;4930672;29;20185;-81
2022/04/19 01:40:18;;;;;;;3.80;2.93;;;5.90;99.90;;;;;;4940117;29;20599;-79
2022/04/19 01:42:57;;;;;;;3.20;2.60;;;5.80;99.90;;;;;;4939035;29;20273;-79
2022/04/19 01:45:28;;;;;;;4.90;2.77;;;5.80;99.90;;;;;;4938941;29;20237;-80
2022/04/19 01:47:54;;;;;;;4.10;2.70;;;5.80;99.90;;;;;;4940010;29;20201;-78
2022/04/19 01:50:21;;;;;;;4.30;2.83;;;5.70;99.90;;;;;;4939873;29;20602;-79
2022/04/19 01:52:49;;;;;;;4.03;2.53;;;5.70;99.90;;;;;;4923318;29;20523;-79
2022/04/19 01:55:17;;;;;;;4.50;2.60;;;5.60;99.90;;;;;;4920867;29;20185;-79
2022/04/19 01:57:46;;;;;;;4.30;2.50;;;5.60;99.90;;;;;;4920866;29;20633;-80
2022/04/19 02:00:13;;;;;;;5.53;2.80;;;5.60;99.90;;;;;;4925059;29;20276;-80
2022/04/19 02:02:40;;;;;;;4.60;2.93;;;5.60;99.90;;;;;;4939676;29;20174;-79
2022/04/19 02:05:06;;;;;;;3.87;2.60;;;5.60;99.90;;;;;;4939783;29;20181;-79
2022/04/19 02:10:09;;;;;;;2.60;2.40;;;5.70;99.90;;;;;;5295404;23;20233;-86
2022/04/19 02:12:36;;;;;;;4.37;2.70;;;5.70;99.90;;;;;;4920717;29;20210;-81
2022/04/19 02:15:02;;;;;;;4.10;2.70;;;5.70;99.90;;;;;;4920778;29;20209;-80
2022/04/19 02:17:28;;;;;;;3.70;3.00;;;5.70;99.90;;;;;;4920671;29;20677;-81
2022/04/19 02:20:05;;;;;;;4.40;3.00;;;5.60;99.90;;;;;;4920616;29;20214;-83
2022/04/19 02:22:32;;;;;;;4.60;2.97;;;5.60;99.90;;;;;;4920810;29;20194;-83
2022/04/19 02:24:59;;;;;;;3.77;2.93;;;5.50;99.90;;;;;;4918658;29;20221;-80
2022/04/19 02:27:26;;;;;;;3.23;2.70;;;5.50;99.90;;;;;;4920579;29;20190;-82
2022/04/19 02:29:52;;;;;;;3.80;2.97;;;5.60;99.90;;;;;;4920455;29;20178;-81
2022/04/19 02:32:18;;;;;;;5.33;3.00;;;5.50;99.90;;;;;;4920547;29;20606;-86
2022/04/19 02:34:43;;;;;;;5.03;3.10;;;5.40;99.90;;;;;;4920448;29;20179;-80
2022/04/19 02:37:09;;;;;;;4.23;2.37;;;5.40;99.90;;;;;;4935061;29;20258;-80
2022/04/19 02:39:36;;;;;;;3.93;2.80;;;5.30;99.90;;;;;;4918166;29;20259;-79
2022/04/19 02:42:06;;;;;;;5.03;2.70;;;5.20;99.90;;;;;;4918947;29;20195;-79
2022/04/19 02:44:32;;;;;;;3.60;2.70;;;5.20;99.90;;;;;;4920467;29;20167;-79
2022/04/19 02:46:58;;;;;;;4.47;2.73;;;5.20;99.90;;;;;;4919075;29;20587;-79
2022/04/19 02:49:24;;;;;;;5.87;2.90;;;5.20;99.90;;;;;;4920173;29;20203;-79
2022/04/19 02:51:50;;;;;;;4.97;2.50;;;5.10;99.90;;;;;;4919929;29;20187;-80
2022/04/19 02:54:17;;;;;;;4.50;3.23;;;5.10;99.90;;;;;;4919847;29;20167;-85
2022/04/19 02:56:43;;;;;;;5.23;2.90;;;5.10;99.90;;;;;;4919884;29;20178;-80
2022/04/19 02:59:09;;;;;;;4.27;2.90;;;5.00;99.90;;;;;;4919770;29;20517;-79
2022/04/19 03:01:35;;;;;;;4.53;2.70;;;4.90;99.90;;;;;;4918510;29;20357;-79
2022/04/19 03:04:01;;;;;;;3.37;2.83;;;4.90;99.90;;;;;;4919837;29;20186;-79
2022/04/19 03:06:27;;;;;;;3.37;2.70;;;4.80;99.90;;;;;;4919738;29;20182;-81
2022/04/19 03:08:53;;;;;;;3.87;2.63;;;4.90;99.90;;;;;;4918119;29;20231;-79
2022/04/19 03:11:18;;;;;;;4.63;2.90;;;4.80;99.90;;;;;;4919789;29;20183;-79
2022/04/19 03:13:44;;;;;;;6.60;3.30;;;4.80;99.90;;;;;;4919717;29;20598;-79
2022/04/19 03:16:13;;;;;;;3.87;2.97;;;4.70;99.90;;;;;;4919682;29;20171;-80
2022/04/19 03:18:43;;;;;;;3.87;2.90;;;4.60;99.90;;;;;;4919348;29;20614;-79
2022/04/19 03:21:10;;;;;;;3.13;2.60;;;4.70;99.90;;;;;;4919176;29;20273;-79
2022/04/19 03:29:06;;;;;;;4.07;2.57;;;4.60;99.90;;;;;;4919342;29;20510;-80
2022/04/19 03:31:32;;;;;;;6.63;2.87;;;4.50;99.90;;;;;;4918028;29;20186;-80
2022/04/19 03:33:58;;;;;;;3.87;2.87;;;4.40;99.90;;;;;;4917838;29;20178;-79
2022/04/19 03:36:24;;;;;;;5.17;2.73;;;4.50;99.90;;;;;;4918515;29;20328;-79
2022/04/19 03:38:49;;;;;;;3.63;2.50;;;4.40;99.90;;;;;;4917906;29;20179;-82
2022/04/19 03:41:15;;;;;;;5.23;2.90;;;4.40;99.90;;;;;;4919143;29;20206;-84
2022/04/19 03:43:41;;;;;;;5.47;2.70;;;4.40;99.90;;;;;;4919081;29;20166;-81
2022/04/19 03:46:08;;;;;;;5.23;2.80;;;4.30;99.90;;;;;;4919013;29;20186;-81
2022/04/19 03:48:34;;;;;;;3.33;2.67;;;4.30;99.90;;;;;;4917472;29;20186;-81
2022/04/19 03:51:00;;;;;;;3.77;2.40;;;4.40;99.90;;;;;;4919035;29;20178;-80
2022/04/19 03:53:25;;;;;;;4.13;2.83;;;4.30;99.90;;;;;;4918944;29;20167;-79
2022/04/19 03:55:51;;;;;;;3.33;2.60;;;4.40;99.90;;;;;;4918722;29;20182;-79
2022/04/19 03:58:17;;;;;;;3.47;2.60;;;4.40;99.90;;;;;;4918796;29;20234;-79
2022/04/19 04:00:42;;;;;;;4.43;2.40;;;4.40;99.90;;;;;;4918570;29;20308;-79
2022/04/19 04:03:08;;;;;;;2.80;2.23;;;4.40;99.90;;;;;;4918052;29;20186;-79
2022/04/19 04:05:34;;;;;;;4.73;2.50;;;4.30;99.90;;;;;;4918586;29;20560;-80
2022/04/19 04:08:00;;;;;;;3.83;2.60;;;4.20;99.90;;;;;;4917830;29;20193;-80
2022/04/19 04:10:25;;;;;;;4.60;2.70;;;4.20;99.90;;;;;;4918187;29;20541;-79
2022/04/19 04:12:51;;;;;;;5.00;2.57;;;4.20;99.90;;;;;;4918744;29;20210;-79
2022/04/19 04:15:17;;;;;;;3.43;2.40;;;4.10;99.90;;;;;;4918750;29;20178;-79
2022/04/19 04:17:43;;;;;;;3.40;2.70;;;4.10;99.90;;;;;;4932785;29;20186;-82
2022/04/19 04:20:09;;;;;;;4.33;2.73;;;4.10;99.90;;;;;;4933048;29;20245;-85
2022/04/19 04:22:35;;;;;;;3.57;2.40;;;4.00;99.90;;;;;;4918620;29;20174;-82
2022/04/19 04:25:02;;;;;;;7.73;3.00;;;3.90;99.90;;;;;;4918326;29;20178;-81
2022/04/19 04:27:28;;;;;;;4.63;2.90;;;3.90;99.90;;;;;;4918518;29;20182;-80
2022/04/19 04:29:53;;;;;;;4.43;2.80;;;3.90;99.90;;;;;;4917079;29;20187;-78
2022/04/19 04:32:19;;;;;;;3.67;2.57;;;3.90;99.90;;;;;;4918134;29;20189;-81
2022/04/19 04:34:45;;;;;;;4.50;2.50;;;3.80;99.90;;;;;;4918298;29;20207;-80
2022/04/19 04:37:10;;;;;;;4.37;2.37;;;3.90;99.90;;;;;;4918091;29;20193;-80
2022/04/19 04:39:36;;;;;;;2.90;2.27;;;4.00;99.90;;;;;;4917730;29;20256;-80
2022/04/19 04:42:02;;;;;;;4.13;2.67;;;4.00;99.90;;;;;;4918000;29;20703;-79
2022/04/19 04:44:28;;;;;;;3.47;2.63;;;4.00;99.90;;;;;;4918150;29;20162;-79
2022/04/19 04:49:40;;;;;;;3.23;2.37;;;4.00;99.90;;;;;;4917109;29;20197;-79
2022/04/19 04:52:09;;;;;;;3.40;2.50;;;4.00;99.90;;;;;;4902530;29;20197;-79
2022/04/19 04:54:36;;;;;;;6.00;2.53;;;4.10;99.90;;;;;;4917900;29;20190;-79
2022/04/19 04:57:03;;;;;;;3.80;2.53;;;4.10;99.90;;;;;;4916760;29;20206;-83
2022/04/19 04:59:29;;;;;;;5.33;2.67;;;4.20;99.90;;;;;;4932302;29;20182;-79
2022/04/19 05:01:56;;;;;;;5.63;2.53;;;4.30;99.90;;;;;;4917972;29;20195;-79
2022/04/19 05:04:22;;;;;;;5.30;2.80;;;4.30;99.90;;;;;;4932611;29;20178;-81
2022/04/19 05:06:47;;;;;;;3.10;2.50;;;4.30;99.90;;;;;;4917973;29;20266;-81
2022/04/19 05:09:13;;;;;;;5.10;2.60;;;4.40;99.90;;;;;;4916085;29;20265;-80
2022/04/19 05:11:39;;;;;;;3.90;2.67;;;4.60;99.90;;;;;;4917075;29;20183;-80
2022/04/19 05:14:05;;;;;;;2.37;2.10;;;4.80;99.90;;;;;;4915920;29;20190;-81
2022/04/19 05:16:31;;;;;;;4.63;2.60;;;4.90;99.90;;;;;;4902100;29;20292;-80
2022/04/19 05:18:57;;;;;;;5.67;2.97;;;4.90;99.90;;;;;;4897410;29;20244;-80
2022/04/19 05:21:22;;;;;;;4.87;2.53;;;5.00;99.90;;;;;;4897727;29;20211;-80
2022/04/19 05:23:48;;;;;;;5.70;3.20;;;4.90;99.90;;;;;;4898011;29;20168;-79
2022/04/19 05:26:14;;;;;;;4.90;2.87;;;5.00;99.90;;;;;;4897681;29;20262;-80
2022/04/19 05:28:39;;;;;;;6.00;3.53;;;5.10;99.90;;;;;;4897296;29;20235;-78
2022/04/19 05:31:05;;;;;;;5.57;3.97;;;5.20;99.90;;;;;;4915723;29;20556;-80
2022/04/19 05:33:31;;;;;;;6.17;3.70;;;5.30;99.90;;;;;;4904845;29;20193;-80
2022/04/19 05:35:56;;;;;;;5.60;3.73;;;5.40;99.90;;;;;;4903910;29;20215;-81
2022/04/19 05:38:22;;;;;;;6.77;4.10;;;5.40;99.90;;;;;;4898138;29;20179;-79
2022/04/19 05:40:48;;;;;;;5.50;3.80;;;5.60;99.90;;;;;;4898047;29;20309;-82
2022/04/19 05:43:14;;;;;;;6.10;3.53;;;5.60;99.90;;;;;;4900612;29;20218;-79
2022/04/19 05:45:39;;;;;;;5.30;4.27;;;5.80;99.90;;;;;;4908101;29;20218;-79
2022/04/19 05:48:05;;;;;;;5.40;4.10;;;5.90;99.90;;;;;;4912965;29;20274;-82
2022/04/19 05:50:31;;;;;;;4.97;4.03;;;6.00;99.90;;;;;;4898613;29;20639;-81
2022/04/19 05:52:57;;;;;;;5.87;3.80;;;6.10;99.90;;;;;;4913451;29;20188;-81
2022/04/19 05:55:23;;;;;;;6.13;3.63;;;6.20;99.90;;;;;;4898093;29;20512;-82
2022/04/19 05:57:49;;;;;;;5.60;3.70;;;6.40;99.90;;;;;;4898315;29;20172;-79
2022/04/19 06:00:15;;;;;;;4.83;3.57;;;6.40;99.90;;;;;;4902618;29;20221;-79
2022/04/19 06:05:25;;;;;;;4.90;3.33;;;6.50;99.90;;;;;;4920452;29;20217;-79
2022/04/19 06:07:52;;;;;;;5.97;3.77;;;6.50;99.90;;;;;;4920316;29;20214;-78
2022/04/19 06:10:18;;;;;;;3.70;3.23;;;6.60;99.90;;;;;;4934462;29;20257;-80
2022/04/19 06:12:44;;;;;;;6.63;3.47;;;6.50;99.90;;;;;;4916516;29;20214;-78
2022/04/19 06:15:11;;;;;;;5.20;3.40;;;6.60;99.90;;;;;;4918536;29;20281;-80
2022/04/19 06:17:38;;;;;;;3.63;3.30;;;6.70;99.90;;;;;;4919951;29;20202;-79
2022/04/19 06:20:06;;;;;;;6.03;2.87;;;7.00;99.90;;;;;;4918944;29;20218;-78
2022/04/19 06:22:33;;;;;;;3.83;2.77;;;7.10;99.90;;;;;;4920052;29;20508;-79
2022/04/19 06:24:59;;;;;;;4.90;2.50;;;7.20;99.90;;;;;;4919979;29;20178;-79
2022/04/19 06:27:25;;;;;;;3.23;2.40;;;7.30;99.90;;;;;;4914569;29;20194;-78
2022/04/19 06:29:57;;;;;;;4.27;2.30;;;7.40;99.90;;;;;;4899942;29;20187;-80
2022/04/19 06:32:22;;;;;;;4.23;2.13;;;7.50;99.90;;;;;;4914442;29;20558;-78
2022/04/19 06:34:53;;;;;;;4.23;2.10;;;7.60;99.90;;;;;;4920138;29;20242;-80
2022/04/19 06:37:19;;;;;;;3.47;1.80;;;7.80;99.90;;;;;;4919893;29;20623;-80
2022/04/19 06:39:45;;;;;;;2.87;1.93;;;7.80;99.90;;;;;;4933378;29;20646;-81
2022/04/19 06:42:11;;;;;;;3.93;1.87;;;7.90;99.90;;;;;;4918904;29;20202;-80
2022/04/19 06:44:36;;;;;;;1.83;1.63;;;8.00;99.90;;;;;;4918947;29;20269;-81
2022/04/19 06:47:02;;;;;;;3.33;1.70;;;8.00;99.90;;;;;;4908787;29;20579;-80
2022/04/19 06:49:28;;;;;;;1.63;1.50;;;8.10;99.90;;;;;;4901021;29;20255;-81
2022/04/19 06:51:54;;;;;;;5.10;1.73;;;7.90;99.50;;;;;;4901082;29;20187;-80
2022/04/19 06:54:20;;;;;;;2.50;1.70;;;7.90;99.90;;;;;;4898675;29;20211;-81
2022/04/19 06:56:46;;;;;;;4.53;1.63;;;7.90;99.90;;;;;;4912911;29;20285;-86
2022/04/19 06:59:12;;;;;;;2.33;1.50;;;8.00;99.90;;;;;;4911376;29;20187;-79
2022/04/19 07:01:40;;;;;;;2.97;1.90;;;8.00;99.60;;;;;;4908098;29;20215;-79
2022/04/19 07:04:08;;;;;;;3.67;1.50;;;8.10;99.60;;;;;;4924145;29;20185;-79
2022/04/19 07:06:34;;;;;;;2.70;1.83;;;8.30;99.90;;;;;;4915923;29;20186;-81
2022/04/19 07:09:00;;;;;;;3.03;2.00;;;8.50;99.90;;;;;;4917464;29;20230;-81
2022/04/19 07:11:25;;;;;;;1.90;1.60;;;8.70;99.60;;;;;;4917550;29;20186;-83
2022/04/19 07:13:51;;;;;;;2.43;1.57;;;8.80;98.40;;;;;;4919491;29;20197;-81
2022/04/19 07:16:17;;;;;;;3.47;1.77;;;8.90;98.30;;;;;;4917714;29;20703;-78
2022/04/19 07:18:43;;;;;;;1.93;1.47;;;9.00;97.40;;;;;;4918058;29;20275;-80
2022/04/19 07:26:45;;;;;;;3.83;1.90;;;8.90;97.00;;;;;;4918793;29;20249;-80
2022/04/19 07:29:11;;;;;;;5.37;1.87;;;8.90;97.90;;;;;;4919025;29;20159;-80
2022/04/19 07:31:39;;;;;;;4.33;2.13;;;8.90;97.70;;;;;;4918878;29;20170;-79
2022/04/19 07:34:06;;;;;;;3.50;1.80;;;8.80;98.20;;;;;;4919060;29;20189;-80
2022/04/19 07:36:31;;;;;;;3.00;1.70;;;8.90;98.10;;;;;;4919186;29;20174;-79
2022/04/19 07:39:00;;;;;;;2.70;1.70;;;9.10;98.30;;;;;;4914371;29;20188;-79
2022/04/19 07:41:26;;;;;;;3.33;2.00;;;9.30;97.60;;;;;;4898327;29;20301;-78
2022/04/19 07:43:52;;;;;;;2.43;1.80;;;9.50;96.70;;;;;;4899496;29;20327;-80
2022/04/19 07:46:18;;;;;;;2.77;1.93;;;9.60;96.00;;;;;;4899738;29;20243;-78
2022/04/19 07:48:47;;;;;;;2.17;1.80;;;9.70;95.70;;;;;;4899495;29;20315;-81
2022/04/19 07:51:14;;;;;;;3.93;2.23;;;9.90;94.80;;;;;;4899829;29;20175;-80
2022/04/19 07:53:40;;;;;;;4.97;3.10;;;10.10;93.90;;;;;;4898343;29;20614;-78
2022/04/19 07:56:06;;;;;;;5.77;2.50;;;10.10;93.70;;;;;;4913209;29;20194;-79
2022/04/19 07:58:32;;;;;;;4.47;2.40;;;10.30;93.40;;;;;;4917024;29;20182;-81
2022/04/19 08:00:58;;;;;;;5.17;2.87;;;10.40;91.80;;;;;;4918366;29;20217;-80
2022/04/19 08:03:23;;;;;;;4.10;2.50;;;10.40;90.60;;;;;;4918334;29;20516;-81
2022/04/19 08:05:50;;;;;;;3.37;2.40;;;10.50;92.20;;;;;;4932984;29;20672;-78
2022/04/19 08:08:18;;;;;;;4.47;2.43;;;10.70;92.90;;;;;;4918222;29;20272;-82
2022/04/19 08:10:44;;;;;;;4.70;2.53;;;10.70;92.30;;;;;;4918073;29;20669;-80
2022/04/19 08:13:11;;;;;;;4.80;2.50;;;10.90;91.10;;;;;;4918211;29;20250;-79
2022/04/19 08:15:36;;;;;;;3.73;2.27;;;10.90;90.20;;;;;;4932845;29;20178;-81
2022/04/19 08:18:02;;;;;;;3.53;2.00;;;10.90;88.60;;;;;;4918104;29;20183;-82
2022/04/19 08:20:28;;;;;;;2.67;1.80;;;10.90;90.60;;;;;;4932565;29;20218;-83
2022/04/19 08:22:54;;;;;;;2.87;2.20;;;10.90;89.10;;;;;;4932316;29;20242;-81
2022/04/19 08:25:19;;;;;;;3.58;1.95;;;11.00;88.60;;;;;;4918236;29;20175;-81
2022/04/19 08:27:48;;;;;;;3.67;2.10;;;11.10;88.00;;;;;;4917548;29;20178;-81
2022/04/19 08:30:16;;;;;;;3.50;2.07;;;11.20;85.60;;;;;;4918046;29;20617;-81
2022/04/19 08:32:45;;;;;;;2.63;1.90;;;11.20;86.50;;;;;;4916717;29;20677;-80
2022/04/19 08:35:12;;;;;;;3.08;1.88;;;11.30;84.90;;;;;;4916789;29;20669;-81
2022/04/19 08:37:38;;;;;;;2.63;1.73;;;11.40;81.30;;;;;;4932266;29;20185;-80
2022/04/19 08:40:06;;;;;;;2.60;1.40;;;11.40;76.20;;;;;;4916371;29;20214;-83
2022/04/19 08:42:32;;;;;;;3.38;1.60;;;11.40;77.40;;;;;;4932095;29;20185;-80
2022/04/19 08:45:03;;;;;;;2.73;2.33;;;11.30;72.90;;;;;;4932257;29;20303;-80
2022/04/19 08:47:33;;;;;;;3.63;1.90;;;11.20;76.20;;;;;;4917523;29;20471;-79
2022/04/19 08:50:05;;;;;;;2.00;1.60;;;11.50;75.70;;;;;;4917707;29;20244;-78
2022/04/19 08:52:33;;;;;;;2.40;1.52;;;11.50;73.90;;;;;;4912187;29;20206;-80
2022/04/19 08:57:44;;;;;;;4.18;1.63;;;11.70;75.30;;;;;;4911422;29;20530;-82
2022/04/19 09:00:11;;;;;;;1.90;1.40;;;11.90;74.30;;;;;;4916733;29;20207;-80
2022/04/19 09:02:37;;;;;;;3.40;1.70;;;11.80;74.70;;;;;;4916575;29;20249;-81
2022/04/19 09:05:19;;;;;;;2.45;1.60;;;11.90;77.60;;;;;;4917679;29;20606;-83
2022/04/19 09:07:49;;;;;;;6.00;1.97;;;12.10;76.80;;;;;;4913833;29;20187;-79
2022/04/19 09:10:24;;;;;;;3.28;1.77;;;12.10;77.20;;;;;;4898795;29;20241;-79
2022/04/19 09:12:59;;;;;;;3.10;1.77;;;12.10;77.60;;;;;;4907303;29;20192;-83
2022/04/19 09:15:35;;;;;;;4.78;2.10;;;12.10;79.90;;;;;;4917654;29;20524;-81
2022/04/19 09:18:02;;;;;;;3.50;1.63;;;12.20;78.80;;;;;;4917400;29;20209;-79
2022/04/19 09:20:28;;;;;;;5.22;2.10;;;11.90;78.70;;;;;;4917607;29;20238;-78
2022/04/19 09:23:08;;;;;;;3.05;1.88;;;12.10;80.40;;;;;;4916365;29;20190;-79
2022/04/19 09:25:35;;;;;;;2.50;1.60;;;12.30;81.20;;;;;;4916449;29;20194;-81
2022/04/19 09:28:03;;;;;;;2.67;1.83;;;12.20;80.00;;;;;;4915954;29;20226;-79
2022/04/19 09:30:37;;;;;;;2.67;1.88;;;12.40;82.60;;;;;;4932257;29;20198;-80
2022/04/19 09:33:11;;;;;;;3.08;1.77;;;12.50;82.60;;;;;;4917551;29;20599;-80
2022/04/19 09:35:39;;;;;;;4.10;1.90;;;12.60;81.10;;;;;;4934263;29;20171;-81
2022/04/19 09:38:07;;;;;;;4.90;1.90;;;12.60;81.00;;;;;;4921307;29;20198;-80
2022/04/19 09:40:38;;;;;;;3.40;1.83;;;12.80;86.00;;;;;;4920979;29;20211;-81
2022/04/19 09:43:18;;;;;;;3.75;1.98;;;12.80;82.60;;;;;;4919519;29;20206;-80
2022/04/19 09:45:47;;;;;;;2.83;1.70;;;12.80;83.50;;;;;;4919936;29;20215;-80
2022/04/19 09:48:18;;;;;;;2.63;1.55;;;12.80;78.30;;;;;;4915084;29;20174;-80
2022/04/19 09:50:51;;;;;;;6.25;1.50;;;13.00;79.70;;;;;;4909548;29;20626;-80
2022/04/19 09:53:20;;;;;;;3.70;1.40;;;13.10;79.00;;;;;;4922238;29;20527;-80
2022/04/19 09:55:48;;;;;;;3.95;1.35;;;13.00;79.40;;;;;;4918918;29;20523;-82
2022/04/19 09:58:15;;;;;;;1.92;1.20;;;13.10;77.60;;;;;;4901930;29;20223;-84
2022/04/19 10:00:43;;;;;;;2.03;1.20;;;13.20;76.80;;;;;;4919249;29;20214;-83
2022/04/19 10:08:38;;;;;;;3.28;1.20;;;13.10;73.60;;;;;;4920362;29;20197;-83
2022/04/19 10:11:04;;;;;;;3.25;1.40;;;13.20;73.20;;;;;;4920587;29;20182;-81
2022/04/19 10:13:33;;;;;;;3.30;1.13;;;13.20;73.50;;;;;;4919420;29;20174;-82
2022/04/19 10:16:00;;;;;;;2.78;1.17;;;13.40;74.50;;;;;;4921725;29;20226;-80
2022/04/19 10:18:26;;;;;;;1.55;1.20;;;13.50;73.70;;;;;;4919301;29;20179;-80
2022/04/19 10:20:53;;;;;;;3.17;1.30;;;13.50;72.90;;;;;;4920546;29;20214;-79
2022/04/19 10:23:19;;;;;;;1.80;1.30;;;13.50;72.30;;;;;;4919964;29;20180;-82
2022/04/19 10:25:48;;;;;;;2.30;1.35;;;13.70;72.10;;;;;;4902225;29;20179;-81
2022/04/19 10:28:29;;;;;;;2.65;1.35;;;13.80;71.20;;;;;;4908416;29;20203;-80
2022/04/19 10:30:56;;;;;;;1.63;1.00;;;13.70;69.50;;;;;;4901313;29;20181;-80
2022/04/19 10:33:51;;;;;;;2.55;1.10;;;13.70;69.40;;;;;;4902027;29;20180;-80
2022/04/19 10:36:38;;;;;;;3.22;1.10;;;13.80;70.50;;;;;;4902660;29;20180;-81
2022/04/19 10:39:13;;;;;;;1.30;0.90;;;14.00;69.60;;;;;;4903929;29;20186;-81
2022/04/19 10:41:52;;;;;;;2.05;1.13;;;14.20;69.10;;;;;;4919191;29;20281;-81
2022/04/19 10:44:25;;;;;;;2.85;1.30;;;14.50;71.20;;;;;;4911986;29;20501;-79
2022/04/19 10:47:20;;;;;;;1.83;1.02;;;14.60;67.20;;;;;;4899607;29;20242;-80
2022/04/19 10:49:48;;;;;;;3.75;1.38;;;14.60;67.40;;;;;;4899874;29;20686;-80
2022/04/19 10:52:35;;;;;;;8.77;1.25;;;14.70;67.40;;;;;;4899843;29;20187;-79
2022/04/19 10:55:04;;;;;;;1.95;1.38;;;14.70;66.40;;;;;;4901101;29;20184;-81
2022/04/19 11:00:31;;;;;;;2.05;1.30;;;14.50;65.50;;;;;;4913374;29;20562;-84
2022/04/19 11:03:00;;;;;;;1.95;1.00;;;14.50;63.00;;;;;;4900929;29;20172;-84
2022/04/19 11:05:48;;;;;;;1.60;1.13;;;14.40;61.20;;;;;;4900838;29;20525;-83
2022/04/19 11:08:26;;;;;;;2.58;1.30;;;14.40;63.30;;;;;;4899574;29;20172;-81
2022/04/19 11:11:06;;;;;;;1.27;1.00;;;14.50;62.10;;;;;;4900398;29;20230;-81
2022/04/19 11:13:35;;;;;;;1.58;1.02;;;14.70;63.30;;;;;;4899245;29;20194;-84
2022/04/19 11:16:05;;;;;;;2.20;1.40;;;14.70;62.40;;;;;;4900953;29;20195;-83
2022/04/19 11:18:32;;;;;;;1.92;1.17;;;14.80;62.40;;;;;;4900296;29;20195;-81
2022/04/19 11:21:03;;;;;;;1.73;1.30;;;14.90;62.10;;;;;;4899004;29;20211;-81
2022/04/19 11:23:40;;;;;;;4.05;1.30;;;15.10;64.50;;;;;;4899305;29;20180;-80
2022/04/19 11:26:09;;;;;;;1.75;1.10;;;15.20;61.50;;;;;;4915599;29;20233;-82
2022/04/19 11:28:35;;;;;;;1.48;1.13;;;15.10;62.10;;;;;;4933685;29;20179;-82
2022/04/19 11:31:00;;;;;;;2.45;1.52;;;15.10;61.10;;;;;;4917854;29;20360;-85
2022/04/19 11:33:29;;;;;;;1.90;1.00;;;15.00;60.60;;;;;;4919028;29;20183;-83
2022/04/19 11:36:08;;;;;;;2.17;1.15;;;15.00;61.40;;;;;;4933881;29;20264;-80
2022/04/19 11:38:39;;;;;;;2.28;1.33;;;15.00;61.00;;;;;;4919056;29;20271;-81
2022/04/19 11:46:49;;;;;;;1.88;1.08;;;15.20;61.50;;;;;;4919189;29;20226;-82
2022/04/19 11:49:29;;;;;;;3.90;1.40;;;15.40;59.70;;;;;;4933585;29;20222;-82
2022/04/19 11:51:57;;;;;;;3.38;1.40;;;15.70;61.30;;;;;;4918818;29;20189;-80
2022/04/19 11:54:28;;;;;;;2.08;1.23;;;15.70;59.30;;;;;;4918794;29;20182;-80
2022/04/19 11:57:05;;;;;;;2.75;1.38;;;15.80;59.20;;;;;;4918200;29;20211;-80
2022/04/19 11:59:32;;;;;;;1.83;1.20;;;15.80;59.20;;;;;;4918556;29;20174;-80
2022/04/19 12:01:59;;;;;;;2.45;1.13;;;15.60;56.60;;;;;;4917251;29;20222;-80
2022/04/19 12:04:25;;;;;;;1.10;0.90;;;15.70;58.80;;;;;;4933141;29;20276;-80
2022/04/19 12:07:01;;;;;;;1.58;0.90;;;15.70;58.50;;;;;;4918517;29;20178;-80
2022/04/19 12:09:28;;;;;;;1.58;0.90;;;15.60;57.70;;;;;;4932708;29;20285;-79
2022/04/19 12:11:54;;;;;;;2.35;1.05;;;15.70;58.80;;;;;;4932578;29;20586;-80
2022/04/19 12:14:32;;;;;;;3.55;1.05;;;15.70;57.20;;;;;;4933152;29;20231;-80
2022/04/19 12:17:00;;;;;;;2.33;1.27;;;15.90;58.20;;;;;;4915605;29;20189;-81
2022/04/19 12:19:34;;;;;;;2.20;1.10;;;16.10;57.40;;;;;;4918180;29;20182;-83
2022/04/19 12:22:00;;;;;;;1.75;1.38;;;16.00;57.20;;;;;;4901827;29;20689;-80
2022/04/19 12:24:31;;;;;;;4.13;1.20;;;15.70;59.10;;;;;;4898522;29;20190;-80
2022/04/19 12:27:09;;;;;;;2.55;1.00;;;15.60;57.50;;;;;;4904577;29;20183;-81
2022/04/19 12:29:37;;;;;;;2.25;1.10;;;15.90;59.10;;;;;;4897934;29;20626;-79
2022/04/19 12:32:04;;;;;;;1.10;0.85;;;15.80;57.60;;;;;;4900578;29;20234;-83
2022/04/19 12:34:37;;;;;;;2.83;0.93;;;15.70;57.20;;;;;;4899515;29;20623;-81
2022/04/19 12:37:14;;;;;;;2.65;1.00;;;15.80;56.90;;;;;;4899400;29;20266;-81
2022/04/19 12:39:41;;;;;;;1.17;1.00;;;15.70;57.10;;;;;;4897669;29;20214;-81
2022/04/19 12:42:09;;;;;;;1.58;1.00;;;15.90;57.40;;;;;;4897538;29;20195;-81
2022/04/19 12:44:39;;;;;;;1.73;1.10;;;15.90;55.40;;;;;;4899117;29;20226;-82
2022/04/19 12:47:16;;;;;;;2.67;1.30;;;15.80;55.50;;;;;;4897806;29;20564;-82
2022/04/19 12:49:46;;;;;;;1.13;0.90;;;15.80;56.50;;;;;;4899250;29;20608;-83
2022/04/19 12:52:12;;;;;;;1.85;1.10;;;15.90;55.40;;;;;;4898988;29;20255;-83
2022/04/19 12:54:40;;;;;;;1.08;0.80;;;16.00;55.10;;;;;;4902806;29;20180;-84
2022/04/19 12:57:23;;;;;;;1.92;1.02;;;16.00;54.40;;;;;;4908794;29;20209;-81
2022/04/19 12:59:50;;;;;;;3.17;1.00;;;16.10;56.00;;;;;;4916733;29;20262;-81
2022/04/19 13:02:20;;;;;;;4.03;1.20;;;15.90;55.30;;;;;;4917846;29;20516;-82
2022/04/19 13:04:49;;;;;;;1.63;1.05;;;16.00;56.10;;;;;;4900226;29;20511;-81
2022/04/19 13:12:46;;;;;;;3.40;1.20;;;15.90;54.80;;;;;;4921813;29;20209;-83
2022/04/19 13:15:13;;;;;;;1.90;0.80;;;16.00;56.20;;;;;;4920479;29;20183;-83
2022/04/19 13:17:41;;;;;;;2.25;1.02;;;16.10;55.50;;;;;;4921678;29;20175;-82
2022/04/19 13:20:08;;;;;;;1.23;1.00;;;15.90;56.30;;;;;;4921563;29;20198;-82
2022/04/19 13:22:36;;;;;;;2.85;1.10;;;16.00;56.10;;;;;;4936473;29;20233;-82
2022/04/19 13:25:02;;;;;;;2.13;1.10;;;15.80;55.80;;;;;;4921614;29;20179;-80
2022/04/19 13:27:33;;;;;;;1.30;1.10;;;16.10;56.20;;;;;;4921236;29;20685;-79
2022/04/19 13:30:00;;;;;;;1.02;0.90;;;16.30;55.50;;;;;;4921654;29;20190;-80
2022/04/19 13:32:26;;;;;;;1.88;0.90;;;16.10;55.40;;;;;;4936035;29;20175;-80
2022/04/19 13:34:52;;;;;;;4.43;1.10;;;16.20;56.10;;;;;;4921536;29;20640;-79
2022/04/19 13:38:23;;;;;;;1.58;0.90;;;16.50;59.80;;;;;;4936010;29;20190;-82
2022/04/19 13:40:04;;;;;;;2.88;0.93;;;16.80;56.10;;;;;;4921111;29;20672;-80
2022/04/19 13:42:30;;;;;;;1.27;0.90;;;16.80;55.50;;;;;;4920895;29;20182;-78